Latest Weather Observations for Derby

IDW60801

Issued at 11:33 am WST Thursday 30 May 2024 (issued every 10 minutes, with the page automatically refreshed every 10 minutes)

About weather observations | Map of weather stations | Latest weather observations for WA | Other Formats
Station Details ID: 003032 Name: DERBY AERO Lat: -17.37 Lon: 123.66 Height: 6.2 m
Data from the previous 72 hours. | See also: Recent months at Derby
Date/Time
WST
Temp
°C
App
Temp
°C
Dew
Point
°C
Rel
Hum
%
Delta-T
°C
Wind Press
QNH
hPa
Press
MSL
hPa
Rain since
9am
mm
Dir  Spd
km/h
Gust
km/h
Spd
kts
Gust
kts
30/11:30am 22.0 20.8 18.4 80 2.3 SSE 22 30 12 16 1015.0 1015.0 0.6
30/11:00am 21.3 20.4 18.3 83 1.9 SE 20 28 11 15 1015.7 1015.7 0.6
30/10:56am 21.2 20.4 18.4 84 1.7 SE 20 28 11 15 1015.8 1015.8 0.6
30/10:30am 20.8 20.8 18.9 89 1.2 SSE 17 22 9 12 1016.1 1016.1 0.6
30/10:00am 20.2 19.4 18.0 87 1.4 SE 19 24 10 13 1016.3 1016.3 0.6
30/09:46am 20.1 20.2 18.4 90 1.1 SSE 15 20 8 11 1016.2 1016.2 0.6
30/09:30am 20.0 19.4 18.8 93 0.8 ESE 20 30 11 16 1015.9 1015.9 0.6
30/09:00am 19.7 17.0 17.5 87 1.3 ESE 28 41 15 22 1015.7 1015.7 24.2
30/08:59am 19.8 17.1 17.6 87 1.3 ESE 28 43 15 23 1015.6 1015.6 24.2
30/08:33am 19.7 18.2 17.7 88 1.2 ESE 22 30 12 16 1015.9 1015.9 24.2
30/08:30am 19.6 18.0 17.4 87 1.3 E 22 32 12 17 1015.9 1015.9 24.2
30/08:00am 19.2 17.9 17.2 88 1.2 E 20 28 11 15 1016.0 1016.0 24.2
30/07:30am 18.9 17.5 17.0 89 1.1 ESE 20 28 11 15 1015.9 1015.9 24.2
30/07:09am 19.0 17.9 17.3 90 1.0 ESE 19 24 10 13 1015.8 1015.8 24.2
30/07:00am 18.8 17.6 17.5 92 0.8 ESE 20 32 11 17 1015.6 1015.6 24.2
30/06:48am 18.8 17.6 17.6 93 0.7 SE 20 30 11 16 1015.5 1015.5 24.2
30/06:30am 18.6 16.7 17.6 94 0.6 SE 24 30 13 16 1015.2 1015.2 24.2
30/06:20am 18.6 15.9 17.6 94 0.6 SE 28 37 15 20 1015.1 1015.1 24.2
30/06:00am 19.1 17.5 18.4 96 0.4 SE 24 39 13 21 1014.9 1014.9 24.2
30/05:30am 19.7 19.4 19.2 97 0.3 SE 19 26 10 14 1014.6 1014.6 23.8
30/05:28am 19.7 19.2 19.2 97 0.3 SE 20 26 11 14 1014.6 1014.6 23.8
30/05:00am 19.8 19.4 18.8 94 0.6 ESE 19 24 10 13 1014.5 1014.5 23.8
30/04:48am 19.8 19.3 19.0 95 0.5 ESE 20 26 11 14 1014.4 1014.4 23.8
30/04:30am 19.7 19.3 19.4 98 0.2 ESE 20 35 11 19 1014.1 1014.1 23.8
30/04:12am 19.6 19.4 19.4 99 0.1 ESE 19 26 10 14 1014.3 1014.3 23.8
30/04:00am 19.6 19.4 19.4 99 0.1 ESE 19 24 10 13 1014.3 1014.3 23.8
30/03:30am 19.5 19.3 19.3 99 0.1 ESE 19 26 10 14 1013.9 1013.9 23.8
30/03:10am 19.4 19.1 19.2 99 0.1 SE 19 26 10 14 1014.0 1014.0 23.8
30/03:00am 19.4 19.6 19.4 100 0.0 ESE 17 24 9 13 1014.0 1014.0 23.8
30/02:30am 19.3 19.5 19.3 100 0.0 SE 17 24 9 13 1014.3 1014.3 23.6
30/02:17am 19.3 19.4 19.1 99 0.1 SE 17 20 9 11 1014.4 1014.4 23.6
30/02:00am 19.4 19.2 19.4 100 0.0 SE 19 28 10 15 1014.1 1014.1 22.4
30/01:30am 19.2 18.7 19.2 100 0.0 ESE 20 26 11 14 1014.0 1014.0 22.0
30/01:08am 19.1 18.6 19.1 100 0.0 SE 20 26 11 14 1014.0 1014.0 21.8
30/01:03am 19.0 18.1 19.0 100 0.0 SE 22 33 12 18 1013.9 1013.9 21.8
30/01:00am 19.0 18.1 19.0 100 0.0 SE 22 33 12 18 1014.0 1014.0 21.8
30/12:48am 19.0 18.6 19.0 100 0.0 SE 19 24 10 13 1014.3 1014.3 21.2
30/12:47am 19.0 18.6 19.0 100 0.0 SSE 19 24 10 13 1014.3 1014.3 21.0
30/12:30am 19.0 18.6 19.0 100 0.0 SSE 19 24 10 13 1014.3 1014.3 19.4
30/12:00am 19.0 18.4 18.8 99 0.1 SSE 20 28 11 15 1014.5 1014.5 16.8
 
Date/Time
WST
Temp
°C
App
Temp
°C
Dew
Point
°C
Rel
Hum
%
Delta-T
°C
Wind Press
QNH
hPa
Press
MSL
hPa
Rain since
9am
mm
Dir  Spd
km/h
Gust
km/h
Spd
kts
Gust
kts
29/11:30pm 19.1 17.7 18.9 99 0.1 SSE 24 33 13 18 1014.3 1014.3 16.2
29/11:00pm 19.1 17.7 18.9 99 0.1 SSE 24 33 13 18 1014.3 1014.3 15.4
29/10:59pm 19.1 17.7 18.9 99 0.1 SSE 24 33 13 18 1014.3 1014.3 15.4
29/10:30pm 19.3 18.9 19.3 100 0.0 S 20 28 11 15 1014.8 1014.8 15.0
29/10:24pm 19.4 19.0 19.4 100 0.0 SSW 20 24 11 13 1014.9 1014.9 15.0
29/10:11pm 19.3 18.5 19.3 100 0.0 SSW 22 33 12 18 1015.0 1015.0 14.2
29/10:00pm 19.5 17.6 19.3 99 0.1 SSW 28 41 15 22 1014.4 1014.4 10.2
29/09:56pm 19.7 17.1 19.5 99 0.1 SSW 32 41 17 22 1014.2 1014.2 7.6
29/09:52pm 19.5 16.8 19.3 99 0.1 S 32 43 17 23 1013.9 1013.9 7.2
29/09:30pm 20.1 17.8 19.3 95 0.5 SSW 30 39 16 21 1013.9 1013.9 4.6
29/09:23pm 20.1 17.8 19.3 95 0.5 SSW 30 39 16 21 1013.9 1013.9 4.4
29/09:00pm 20.8 20.1 19.6 93 0.8 S 22 30 12 16 1013.7 1013.7 3.4
29/08:30pm 20.9 20.4 19.0 89 1.2 S 20 28 11 15 1013.5 1013.5 2.6
29/08:00pm 20.9 20.5 18.8 88 1.3 SSE 19 24 10 13 1013.3 1013.3 1.8
29/07:30pm 21.0 19.6 18.9 88 1.3 SSE 24 35 13 19 1012.8 1012.8 1.6
29/07:00pm 21.2 19.5 19.7 91 1.0 SSE 28 33 15 18 1012.2 1012.2 1.4
29/06:30pm 21.9 19.7 18.7 82 2.0 S 28 37 15 20 1013.1 1013.1 0.0
29/06:00pm 22.9 18.0 18.2 75 2.9 SSW 41 54 22 29 1011.9 1011.9 0.0
29/05:32pm 26.1 24.0 19.0 65 4.5 WSW 28 46 15 25 1011.1 1011.1 0.0
29/05:30pm 26.4 25.0 18.8 63 4.9 W 24 44 13 24 1011.2 1011.2 0.0
29/05:00pm 27.9 27.8 19.9 61 5.2 NW 20 26 11 14 1010.4 1010.4 0.0
29/04:30pm 28.7 28.3 18.8 55 6.4 NW 19 24 10 13 1009.8 1009.8 0.0
29/04:00pm 29.3 27.6 19.0 53 6.7 NW 26 32 14 17 1009.3 1009.3 0.0
29/03:30pm 29.3 27.7 18.4 51 7.0 NW 24 30 13 16 1008.8 1008.8 0.0
29/03:00pm 30.0 28.4 18.4 49 7.5 NW 24 28 13 15 1008.6 1008.6 0.0
29/02:30pm 30.7 29.9 18.4 47 7.9 NW 20 26 11 14 1008.5 1008.5 0.0
29/02:00pm 32.3 32.6 19.5 46 8.4 NNW 17 30 9 16 1008.5 1008.5 0.0
29/01:30pm 33.2 31.6 16.5 36 10.6 N 20 30 11 16 1008.8 1008.8 0.0
29/01:00pm 32.2 30.6 16.5 39 9.9 N 20 28 11 15 1009.1 1009.1 0.0
29/12:30pm 32.4 30.9 16.3 38 10.1 NNE 19 28 10 15 1009.4 1009.4 0.0
29/12:00pm 31.6 29.4 16.0 39 9.8 NNE 22 33 12 18 1009.6 1009.6 0.0
29/11:30am 31.0 28.7 15.8 39 9.4 N 22 32 12 17 1010.3 1010.3 0.0
29/11:00am 31.0 30.2 18.0 45 8.3 N 19 33 10 18 1011.1 1011.1 0.0
29/10:30am 30.6 30.6 19.0 50 7.5 NNE 17 22 9 12 1011.6 1011.6 0.0
29/10:00am 29.4 30.0 19.4 55 6.5 NNE 15 20 8 11 1012.0 1012.0 0.0
29/09:30am 29.0 30.2 20.7 61 5.5 NNE 15 20 8 11 1012.1 1012.1 0.0
29/09:00am 28.5 30.8 19.4 57 5.9 ESE 6 11 3 6 1012.3 1012.3 0.0
29/08:30am 27.4 28.2 18.1 57 5.9 S 11 15 6 8 1012.4 1012.4 0.0
29/08:00am 26.6 28.0 17.9 59 5.5 ESE 7 9 4 5 1012.4 1012.4 0.0
29/07:30am 24.5 26.1 17.0 63 4.6 ESE 4 9 2 5 1012.3 1012.3 0.0
29/07:00am 21.8 23.6 15.6 68 3.7 CALM 0 6 0 3 1012.1 1012.1 0.0
29/06:30am 20.0 20.3 15.0 73 2.9 ESE 7 9 4 5 1011.9 1011.9 0.0
29/06:00am 20.1 21.0 15.1 73 2.9 ENE 4 6 2 3 1011.8 1011.8 0.0
29/05:30am 20.5 21.1 15.3 72 3.1 E 6 9 3 5 1011.5 1011.5 0.0
29/05:00am 19.9 20.6 15.5 76 2.6 E 6 9 3 5 1011.2 1011.2 0.0
29/04:30am 20.3 20.9 15.7 75 2.7 ENE 7 11 4 6 1011.1 1011.1 0.0
29/04:00am 20.7 21.6 16.7 78 2.4 ENE 7 9 4 5 1011.1 1011.1 0.0
29/03:30am 19.5 21.0 15.6 78 2.3 NE 2 7 1 4 1011.0 1011.0 0.0
29/03:00am 20.3 22.0 15.3 73 3.0 CALM 0 0 0 0 1011.1 1011.1 0.0
29/02:30am 20.7 21.8 15.5 72 3.1 ENE 4 6 2 3 1011.2 1011.2 0.0
29/02:00am 20.7 22.7 16.1 75 2.8 CALM 0 0 0 0 1011.2 1011.2 0.0
29/01:30am 20.5 22.6 16.3 77 2.5 CALM 0 0 0 0 1011.6 1011.6 0.0
29/01:00am 20.5 22.6 16.3 77 2.5 CALM 0 0 0 0 1011.9 1011.9 0.0
29/12:30am 21.5 22.8 17.1 76 2.7 SSE 6 7 3 4 1012.0 1012.0 0.0
29/12:00am 21.6 23.1 17.6 78 2.5 SE 6 7 3 4 1012.1 1012.1 0.0
 
Date/Time
WST
Temp
°C
App
Temp
°C
Dew
Point
°C
Rel
Hum
%
Delta-T
°C
Wind Press
QNH
hPa
Press
MSL
hPa
Rain since
9am
mm
Dir  Spd
km/h
Gust
km/h
Spd
kts
Gust
kts
28/11:30pm 21.0 23.0 17.0 78 2.4 SE 2 9 1 5 1012.1 1012.1 0.0
28/11:00pm 22.9 24.5 17.8 73 3.2 SE 6 7 3 4 1012.2 1012.2 0.0
28/10:30pm 22.3 22.5 16.8 71 3.4 SSW 11 13 6 7 1012.2 1012.2 0.0
28/10:00pm 22.4 25.7 19.0 81 2.2 CALM 0 0 0 0 1012.2 1012.2 0.0
28/09:30pm 24.1 26.4 19.4 75 3.0 WSW 6 7 3 4 1012.2 1012.2 0.0
28/09:00pm 24.5 25.7 18.2 68 4.0 NNW 9 9 5 5 1012.3 1012.3 0.0
28/08:30pm 25.0 26.9 18.9 69 3.9 NNW 7 9 4 5 1012.2 1012.2 0.0
28/08:00pm 25.9 27.8 19.8 69 4.0 NNW 9 13 5 7 1012.3 1012.3 0.0
28/07:30pm 26.3 27.5 19.9 68 4.2 NNW 13 17 7 9 1011.9 1011.9 0.0
28/07:00pm 26.1 26.2 17.5 59 5.4 NNW 13 13 7 7 1011.6 1011.6 0.0
28/06:30pm 26.2 26.5 15.9 53 6.3 NW 9 11 5 6 1011.5 1011.5 0.0
28/06:00pm 27.0 27.7 16.0 51 6.8 NW 7 11 4 6 1011.3 1011.3 0.0
28/05:30pm 28.0 28.3 16.0 48 7.4 WNW 9 11 5 6 1011.0 1011.0 0.0
28/05:00pm 29.6 28.8 16.1 44 8.4 WNW 15 20 8 11 1010.8 1010.8 0.0
28/04:30pm 30.9 29.3 14.9 37 9.8 WNW 17 22 9 12 1010.7 1010.7 0.0
28/04:00pm 31.8 30.3 15.3 37 10.2 NW 17 20 9 11 1010.3 1010.3 0.0
28/03:30pm 31.8 30.6 16.1 38 9.8 NW 17 22 9 12 1010.3 1010.3 0.0
28/03:00pm 32.2 30.9 15.7 37 10.3 NNW 17 24 9 13 1010.2 1010.2 0.0
28/02:30pm 32.4 31.3 15.4 36 10.5 NW 15 22 8 12 1010.3 1010.3 0.0
28/02:00pm 32.5 30.9 15.9 36 10.4 NW 19 24 10 13 1010.4 1010.4 0.0
28/01:30pm 33.2 32.4 16.1 35 10.7 ENE 15 26 8 14 1010.8 1010.8 0.0
28/01:00pm 32.0 30.6 14.6 34 10.7 N 15 26 8 14 1011.1 1011.1 0.0
28/12:30pm 32.1 31.5 15.6 37 10.3 NW 13 20 7 11 1011.9 1011.9 0.0
28/12:00pm 31.7 31.5 16.8 40 9.4 WNW 13 19 7 10 1012.6 1012.6 0.0
28/11:30am 31.9 32.5 17.8 43 9.0 WNW 11 15 6 8 1013.4 1013.4 0.0
28/11:00am 31.0 31.4 17.3 43 8.7 NW 11 17 6 9 1013.6 1013.6 0.0
28/10:30am 31.1 32.1 17.8 45 8.5 N 9 15 5 8 1014.0 1014.0 0.0
28/10:00am 30.1 31.9 18.2 49 7.6 NNW 6 13 3 7 1014.4 1014.4 0.0
28/09:30am 29.5 30.2 17.0 47 7.9 WNW 9 13 5 7 1014.5 1014.5 0.0
28/09:00am 28.8 29.9 15.7 45 8.1 NNW 4 9 2 5 1014.7 1014.7 0.0
28/08:30am 26.9 28.0 16.5 53 6.4 NNE 6 7 3 4 1014.6 1014.6 0.0
28/08:00am 24.9 26.4 17.6 64 4.6 NNE 6 6 3 3 1014.5 1014.5 0.0
28/07:30am 23.1 24.0 17.6 71 3.4 ENE 9 11 5 6 1014.3 1014.3 0.0
28/07:00am 21.4 22.2 17.2 77 2.6 NE 9 13 5 7 1014.2 1014.2 0.0
28/06:30am 20.3 20.9 16.7 80 2.2 NE 9 11 5 6 1013.9 1013.9 0.0
28/06:00am 19.8 20.2 16.3 80 2.1 ENE 9 13 5 7 1013.5 1013.5 0.0
28/05:30am 19.6 21.4 15.5 77 2.4 CALM 0 7 0 4 1013.1 1013.1 0.0
28/05:00am 19.8 20.2 15.2 75 2.7 NE 7 9 4 5 1012.8 1012.8 0.0
28/04:30am 19.2 19.2 14.2 73 2.9 ENE 7 9 4 5 1012.7 1012.7 0.0
28/04:00am 19.5 20.5 13.2 67 3.6 CALM 0 4 0 2 1012.8 1012.8 0.0
28/03:30am 19.2 20.2 13.2 68 3.4 CALM 0 0 0 0 1012.5 1012.5 0.0
28/03:00am 19.1 19.8 12.1 64 3.9 CALM 0 6 0 3 1012.5 1012.5 0.0
28/02:30am 18.9 18.3 11.7 63 4.0 NNW 6 9 3 5 1012.6 1012.6 0.0
28/02:00am 19.6 19.7 11.4 59 4.5 SSW 2 6 1 3 1012.6 1012.6 0.0
28/01:30am 19.5 19.8 10.8 57 4.7 CALM 0 0 0 0 1012.9 1012.9 0.0
28/01:00am 20.1 19.4 11.3 57 4.8 SSW 6 9 3 5 1013.2 1013.2 0.0
28/12:30am 20.5 21.8 14.2 67 3.7 CALM 0 0 0 0 1013.3 1013.3 0.0
28/12:00am 21.5 22.9 14.4 64 4.2 CALM 0 0 0 0 1013.4 1013.4 0.0
 
Date/Time
WST
Temp
°C
App
Temp
°C
Dew
Point
°C
Rel
Hum
%
Delta-T
°C
Wind Press
QNH
hPa
Press
MSL
hPa
Rain since
9am
mm
Dir  Spd
km/h
Gust
km/h
Spd
kts
Gust
kts
27/11:30pm 21.3 22.7 14.5 65 4.0 CALM 0 0 0 0 1013.7 1013.7 0.0
27/11:00pm 24.4 24.5 14.5 54 5.9 WSW 7 11 4 6 1013.7 1013.7 0.0
27/10:30pm 24.6 24.3 14.4 53 6.0 W 9 11 5 6 1013.9 1013.9 0.0
27/10:00pm 24.5 26.0 15.7 58 5.3 WNW 2 6 1 3 1014.0 1014.0 0.0
27/09:30pm 23.6 25.8 16.4 64 4.4 CALM 0 0 0 0 1014.1 1014.1 0.0
27/09:00pm 23.8 24.6 16.3 63 4.6 SSW 7 9 4 5 1013.9 1013.9 0.0
27/08:30pm 24.0 25.3 17.0 65 4.3 SSW 6 11 3 6 1013.7 1013.7 0.0
27/08:00pm 25.3 26.6 17.0 60 5.1 NNW 6 7 3 4 1013.5 1013.5 0.0
27/07:30pm 25.7 25.2 13.9 48 7.0 NNW 9 13 5 7 1013.4 1013.4 0.0
27/07:00pm 25.9 26.4 12.7 44 7.7 W 2 9 1 5 1013.2 1013.2 0.0
27/06:30pm 27.2 26.9 13.2 42 8.2 W 7 9 4 5 1012.8 1012.8 0.0
27/06:00pm 27.8 27.3 12.2 38 9.0 NW 6 7 3 4 1012.6 1012.6 0.0
27/05:30pm 28.3 26.8 11.8 36 9.5 NW 11 11 6 6 1012.2 1012.2 0.0
27/05:00pm 30.4 28.2 10.9 30 11.2 WNW 13 17 7 9 1011.8 1011.8 0.0
27/04:30pm 31.5 28.5 10.8 28 11.9 WNW 17 20 9 11 1011.5 1011.5 0.0
27/04:00pm 32.3 29.0 11.5 28 12.2 WNW 20 26 11 14 1011.2 1011.2 0.0
27/03:30pm 32.8 29.3 10.8 26 12.8 WNW 20 24 11 13 1011.2 1011.2 0.0
27/03:00pm 33.5 30.1 12.5 28 12.5 WNW 22 28 12 15 1011.2 1011.2 0.0
27/02:30pm 31.3 28.1 13.1 33 10.9 NW 22 30 12 16 1011.2 1011.2 0.0
27/02:00pm 33.9 33.3 13.4 29 12.4 SE 9 13 5 7 1011.3 1011.3 0.0
27/01:30pm 33.0 31.5 10.4 25 13.0 E 9 15 5 8 1011.5 1011.5 0.0
27/01:00pm 33.8 32.0 11.0 25 13.3 NE 11 19 6 10 1011.8 1011.8 0.0
27/12:30pm 32.5 29.8 10.5 26 12.7 E 15 24 8 13 1012.4 1012.4 0.0
27/12:00pm 32.7 30.5 10.7 26 12.7 ESE 13 22 7 12 1012.9 1012.9 0.0

Other formats

Comma delimited format used in spreadsheet applications
http://www.bom.gov.au/fwo/IDW60801/IDW60801.95205.axf

JavaScript Object Notation format (JSON) in row-major order
http://www.bom.gov.au/fwo/IDW60801/IDW60801.95205.json

Data quality

Most of these data are generated automatically and are frequently updated. Quality checks on data are not normally performed. It is possible for incorrect values to appear. Refer to information at About Latest Weather Observations and please check the disclaimer before using these data.